sensor_id;sensor_type;location;lat;lon;timestamp;pressure;altitude;pressure_sealevel;temperature;humidity
16525;BME280;8375;33.594;-117.718;2023-05-23T00:00:29;100023.03;;;20.24;75.13
16525;BME280;8375;33.594;-117.718;2023-05-23T00:02:58;100021.56;;;20.36;75.43
16525;BME280;8375;33.594;-117.718;2023-05-23T00:05:28;100029.06;;;20.18;75.34
16525;BME280;8375;33.594;-117.718;2023-05-23T00:07:57;100031.06;;;20.16;75.48
16525;BME280;8375;33.594;-117.718;2023-05-23T00:10:27;100023.16;;;20.16;75.34
16525;BME280;8375;33.594;-117.718;2023-05-23T00:12:55;100021.97;;;20.18;75.04
16525;BME280;8375;33.594;-117.718;2023-05-23T00:15:24;100030.53;;;20.20;75.30
16525;BME280;8375;33.594;-117.718;2023-05-23T00:17:53;100019.09;;;20.13;74.96
16525;BME280;8375;33.594;-117.718;2023-05-23T00:20:22;100021.63;;;20.06;75.06
16525;BME280;8375;33.594;-117.718;2023-05-23T00:22:50;100012.84;;;19.99;76.86
16525;BME280;8375;33.594;-117.718;2023-05-23T00:25:19;100016.72;;;20.03;76.25
16525;BME280;8375;33.594;-117.718;2023-05-23T00:27:50;100011.13;;;19.91;76.29
16525;BME280;8375;33.594;-117.718;2023-05-23T00:30:18;100013.56;;;19.93;76.28
16525;BME280;8375;33.594;-117.718;2023-05-23T00:32:47;100017.47;;;19.82;75.80
16525;BME280;8375;33.594;-117.718;2023-05-23T00:35:16;100003.09;;;19.85;76.44
16525;BME280;8375;33.594;-117.718;2023-05-23T00:37:44;100013.00;;;19.83;76.54
16525;BME280;8375;33.594;-117.718;2023-05-23T00:40:15;100016.31;;;19.70;77.22
16525;BME280;8375;33.594;-117.718;2023-05-23T00:42:44;100013.94;;;19.60;77.10
16525;BME280;8375;33.594;-117.718;2023-05-23T00:45:16;100022.28;;;19.48;77.48
16525;BME280;8375;33.594;-117.718;2023-05-23T00:47:47;100017.00;;;19.48;78.18
16525;BME280;8375;33.594;-117.718;2023-05-23T00:50:17;100021.22;;;19.43;77.71
16525;BME280;8375;33.594;-117.718;2023-05-23T00:52:47;100022.72;;;19.37;79.21
16525;BME280;8375;33.594;-117.718;2023-05-23T00:55:16;100019.63;;;19.18;79.80
16525;BME280;8375;33.594;-117.718;2023-05-23T00:57:45;100021.53;;;19.25;80.34
16525;BME280;8375;33.594;-117.718;2023-05-23T01:00:16;100014.34;;;19.18;80.11
16525;BME280;8375;33.594;-117.718;2023-05-23T01:02:46;100011.66;;;19.12;80.11
16525;BME280;8375;33.594;-117.718;2023-05-23T01:05:16;100009.00;;;19.12;81.13
16525;BME280;8375;33.594;-117.718;2023-05-23T01:07:46;100007.91;;;19.06;80.67
16525;BME280;8375;33.594;-117.718;2023-05-23T01:10:16;100014.06;;;18.98;80.19
16525;BME280;8375;33.594;-117.718;2023-05-23T01:12:55;100013.28;;;18.89;81.29
16525;BME280;8375;33.594;-117.718;2023-05-23T01:15:30;100013.81;;;18.85;81.76
16525;BME280;8375;33.594;-117.718;2023-05-23T01:18:05;100012.66;;;18.64;82.36
16525;BME280;8375;33.594;-117.718;2023-05-23T01:20:38;100011.19;;;18.61;82.76
16525;BME280;8375;33.594;-117.718;2023-05-23T01:23:26;100006.03;;;18.45;83.38
16525;BME280;8375;33.594;-117.718;2023-05-23T01:26:23;100015.88;;;18.20;84.58
16525;BME280;8375;33.594;-117.718;2023-05-23T01:29:02;100007.88;;;18.13;85.35
16525;BME280;8375;33.594;-117.718;2023-05-23T01:31:37;100005.25;;;18.13;85.91
16525;BME280;8375;33.594;-117.718;2023-05-23T01:34:09;100008.38;;;18.08;86.40
16525;BME280;8375;33.594;-117.718;2023-05-23T01:36:41;100007.03;;;18.12;86.90
16525;BME280;8375;33.594;-117.718;2023-05-23T01:39:10;100007.22;;;18.11;87.08
16525;BME280;8375;33.594;-117.718;2023-05-23T01:41:39;100007.03;;;18.12;86.47
16525;BME280;8375;33.594;-117.718;2023-05-23T01:44:09;100014.91;;;18.12;86.42
16525;BME280;8375;33.594;-117.718;2023-05-23T01:46:39;100010.50;;;18.13;86.59
16525;BME280;8375;33.594;-117.718;2023-05-23T01:49:11;100011.16;;;18.15;86.92
16525;BME280;8375;33.594;-117.718;2023-05-23T01:51:41;100012.81;;;18.08;86.82
16525;BME280;8375;33.594;-117.718;2023-05-23T01:54:09;100023.66;;;18.05;86.50
16525;BME280;8375;33.594;-117.718;2023-05-23T01:56:40;100026.44;;;18.03;86.83
16525;BME280;8375;33.594;-117.718;2023-05-23T01:59:11;100028.44;;;18.01;87.85
16525;BME280;8375;33.594;-117.718;2023-05-23T02:01:40;100032.53;;;18.03;87.54
16525;BME280;8375;33.594;-117.718;2023-05-23T02:04:09;100025.66;;;18.02;87.34
16525;BME280;8375;33.594;-117.718;2023-05-23T02:06:37;100024.81;;;18.02;87.90
16525;BME280;8375;33.594;-117.718;2023-05-23T02:09:07;100030.56;;;17.97;87.73
16525;BME280;8375;33.594;-117.718;2023-05-23T02:11:35;100040.13;;;17.90;87.87
16525;BME280;8375;33.594;-117.718;2023-05-23T02:14:06;100037.47;;;17.90;88.77
16525;BME280;8375;33.594;-117.718;2023-05-23T02:16:37;100039.00;;;17.76;88.49
16525;BME280;8375;33.594;-117.718;2023-05-23T02:19:06;100047.06;;;17.74;89.16
16525;BME280;8375;33.594;-117.718;2023-05-23T02:21:35;100045.41;;;17.73;90.17
16525;BME280;8375;33.594;-117.718;2023-05-23T02:24:03;100048.19;;;17.72;90.48
16525;BME280;8375;33.594;-117.718;2023-05-23T02:26:32;100045.09;;;17.68;89.63
16525;BME280;8375;33.594;-117.718;2023-05-23T02:29:01;100043.63;;;17.66;90.44
16525;BME280;8375;33.594;-117.718;2023-05-23T02:31:30;100044.47;;;17.66;89.76
16525;BME280;8375;33.594;-117.718;2023-05-23T02:34:00;100036.44;;;17.51;90.71
16525;BME280;8375;33.594;-117.718;2023-05-23T02:36:29;100034.66;;;17.52;91.26
16525;BME280;8375;33.594;-117.718;2023-05-23T02:38:58;100039.06;;;17.51;91.68
16525;BME280;8375;33.594;-117.718;2023-05-23T02:41:27;100040.56;;;17.54;91.37
16525;BME280;8375;33.594;-117.718;2023-05-23T02:43:56;100043.16;;;17.54;91.28
16525;BME280;8375;33.594;-117.718;2023-05-23T02:46:24;100033.31;;;17.56;91.91
16525;BME280;8375;33.594;-117.718;2023-05-23T02:48:53;100034.31;;;17.55;91.38
16525;BME280;8375;33.594;-117.718;2023-05-23T02:51:23;100040.56;;;17.54;91.28
16525;BME280;8375;33.594;-117.718;2023-05-23T02:53:52;100041.88;;;17.50;91.34
16525;BME280;8375;33.594;-117.718;2023-05-23T02:56:21;100045.16;;;17.52;91.36
16525;BME280;8375;33.594;-117.718;2023-05-23T02:58:49;100041.69;;;17.43;92.00
16525;BME280;8375;33.594;-117.718;2023-05-23T03:01:18;100038.44;;;17.41;92.69
16525;BME280;8375;33.594;-117.718;2023-05-23T03:03:47;100034.19;;;17.32;92.99
16525;BME280;8375;33.594;-117.718;2023-05-23T03:06:16;100038.44;;;17.33;93.71
16525;BME280;8375;33.594;-117.718;2023-05-23T03:08:50;100038.78;;;17.21;94.51
16525;BME280;8375;33.594;-117.718;2023-05-23T03:11:19;100037.00;;;17.13;94.49
16525;BME280;8375;33.594;-117.718;2023-05-23T03:13:48;100038.13;;;17.11;94.70
16525;BME280;8375;33.594;-117.718;2023-05-23T03:16:17;100039.63;;;17.05;95.05
16525;BME280;8375;33.594;-117.718;2023-05-23T03:18:45;100039.75;;;16.95;95.85
16525;BME280;8375;33.594;-117.718;2023-05-23T03:21:14;100043.53;;;16.93;96.80
16525;BME280;8375;33.594;-117.718;2023-05-23T03:23:43;100039.09;;;16.93;96.49
16525;BME280;8375;33.594;-117.718;2023-05-23T03:26:13;100041.06;;;16.91;96.99
16525;BME280;8375;33.594;-117.718;2023-05-23T03:28:42;100043.84;;;16.90;97.18
16525;BME280;8375;33.594;-117.718;2023-05-23T03:31:10;100042.69;;;16.92;97.29
16525;BME280;8375;33.594;-117.718;2023-05-23T03:33:39;100037.63;;;16.91;96.68
16525;BME280;8375;33.594;-117.718;2023-05-23T03:36:08;100043.69;;;16.91;97.04
16525;BME280;8375;33.594;-117.718;2023-05-23T03:38:38;100044.84;;;16.89;97.15
16525;BME280;8375;33.594;-117.718;2023-05-23T03:41:08;100041.56;;;16.86;97.46
16525;BME280;8375;33.594;-117.718;2023-05-23T03:43:38;100031.72;;;16.80;97.33
16525;BME280;8375;33.594;-117.718;2023-05-23T03:46:06;100033.69;;;16.78;96.85
16525;BME280;8375;33.594;-117.718;2023-05-23T03:48:35;100033.69;;;16.78;97.75
16525;BME280;8375;33.594;-117.718;2023-05-23T03:51:04;100033.84;;;16.77;98.15
16525;BME280;8375;33.594;-117.718;2023-05-23T03:53:33;100041.53;;;16.70;97.90
16525;BME280;8375;33.594;-117.718;2023-05-23T03:56:01;100045.78;;;16.63;98.23
16525;BME280;8375;33.594;-117.718;2023-05-23T03:58:30;100056.41;;;16.61;98.01
16525;BME280;8375;33.594;-117.718;2023-05-23T04:01:00;100051.81;;;16.55;99.67
16525;BME280;8375;33.594;-117.718;2023-05-23T04:03:30;100050.19;;;16.54;99.51
16525;BME280;8375;33.594;-117.718;2023-05-23T04:05:59;100059.03;;;16.53;99.60
16525;BME280;8375;33.594;-117.718;2023-05-23T04:08:28;100053.13;;;16.51;99.94
16525;BME280;8375;33.594;-117.718;2023-05-23T04:10:59;100057.53;;;16.42;100.00
16525;BME280;8375;33.594;-117.718;2023-05-23T04:13:28;100050.44;;;16.26;100.00
16525;BME280;8375;33.594;-117.718;2023-05-23T04:16:00;100050.63;;;16.24;100.00
16525;BME280;8375;33.594;-117.718;2023-05-23T04:18:31;100063.13;;;16.04;100.00
16525;BME280;8375;33.594;-117.718;2023-05-23T04:21:00;100064.28;;;16.02;100.00
16525;BME280;8375;33.594;-117.718;2023-05-23T04:23:29;100067.72;;;16.10;100.00
16525;BME280;8375;33.594;-117.718;2023-05-23T04:25:57;100068.88;;;16.08;100.00
16525;BME280;8375;33.594;-117.718;2023-05-23T04:28:26;100072.00;;;16.11;100.00
16525;BME280;8375;33.594;-117.718;2023-05-23T04:30:55;100066.94;;;16.10;100.00
16525;BME280;8375;33.594;-117.718;2023-05-23T04:33:25;100072.81;;;16.12;100.00
16525;BME280;8375;33.594;-117.718;2023-05-23T04:35:54;100077.09;;;16.13;100.00
16525;BME280;8375;33.594;-117.718;2023-05-23T04:38:22;100076.91;;;16.15;100.00
16525;BME280;8375;33.594;-117.718;2023-05-23T04:40:51;100079.69;;;16.13;100.00
16525;BME280;8375;33.594;-117.718;2023-05-23T04:43:20;100088.38;;;16.13;100.00
16525;BME280;8375;33.594;-117.718;2023-05-23T04:45:52;100093.28;;;16.17;100.00
16525;BME280;8375;33.594;-117.718;2023-05-23T04:48:21;100095.09;;;16.16;100.00
16525;BME280;8375;33.594;-117.718;2023-05-23T04:50:51;100101.47;;;16.13;100.00
16525;BME280;8375;33.594;-117.718;2023-05-23T04:53:21;100097.03;;;16.06;100.00
16525;BME280;8375;33.594;-117.718;2023-05-23T04:55:50;100100.44;;;16.06;100.00
16525;BME280;8375;33.594;-117.718;2023-05-23T04:58:18;100100.94;;;16.02;100.00
16525;BME280;8375;33.594;-117.718;2023-05-23T05:00:47;100105.81;;;15.96;100.00
16525;BME280;8375;33.594;-117.718;2023-05-23T05:03:16;100109.91;;;15.99;100.00
16525;BME280;8375;33.594;-117.718;2023-05-23T05:05:44;100109.75;;;16.01;100.00
16525;BME280;8375;33.594;-117.718;2023-05-23T05:08:14;100116.63;;;16.02;100.00
16525;BME280;8375;33.594;-117.718;2023-05-23T05:10:45;100120.22;;;16.01;100.00
16525;BME280;8375;33.594;-117.718;2023-05-23T05:13:14;100134.13;;;16.01;100.00
16525;BME280;8375;33.594;-117.718;2023-05-23T05:15:42;100131.69;;;16.00;100.00
16525;BME280;8375;33.594;-117.718;2023-05-23T05:18:11;100131.31;;;15.94;100.00
16525;BME280;8375;33.594;-117.718;2023-05-23T05:20:40;100135.59;;;15.95;100.00
16525;BME280;8375;33.594;-117.718;2023-05-23T05:23:08;100139.31;;;15.93;100.00
16525;BME280;8375;33.594;-117.718;2023-05-23T05:25:39;100150.50;;;15.85;100.00
16525;BME280;8375;33.594;-117.718;2023-05-23T05:28:08;100148.31;;;15.90;100.00
16525;BME280;8375;33.594;-117.718;2023-05-23T05:30:36;100150.50;;;15.85;100.00
16525;BME280;8375;33.594;-117.718;2023-05-23T05:33:05;100152.03;;;15.88;100.00
16525;BME280;8375;33.594;-117.718;2023-05-23T05:35:34;100153.13;;;15.85;100.00
16525;BME280;8375;33.594;-117.718;2023-05-23T05:38:03;100151.34;;;15.86;100.00
16525;BME280;8375;33.594;-117.718;2023-05-23T05:40:33;100161.16;;;15.83;100.00
16525;BME280;8375;33.594;-117.718;2023-05-23T05:43:03;100161.94;;;15.84;100.00
16525;BME280;8375;33.594;-117.718;2023-05-23T05:45:32;100168.31;;;15.81;100.00
16525;BME280;8375;33.594;-117.718;2023-05-23T05:48:01;100174.06;;;15.85;100.00
16525;BME280;8375;33.594;-117.718;2023-05-23T05:50:32;100172.72;;;15.81;100.00
16525;BME280;8375;33.594;-117.718;2023-05-23T05:53:01;100171.63;;;15.83;100.00
16525;BME280;8375;33.594;-117.718;2023-05-23T05:55:30;100176.78;;;15.75;100.00
16525;BME280;8375;33.594;-117.718;2023-05-23T05:57:59;100177.75;;;15.74;100.00
16525;BME280;8375;33.594;-117.718;2023-05-23T06:00:32;100167.59;;;15.71;100.00
16525;BME280;8375;33.594;-117.718;2023-05-23T06:03:07;100176.19;;;15.63;100.00
16525;BME280;8375;33.594;-117.718;2023-05-23T06:05:37;100171.31;;;15.68;100.00
16525;BME280;8375;33.594;-117.718;2023-05-23T06:08:06;100174.25;;;15.65;100.00
16525;BME280;8375;33.594;-117.718;2023-05-23T06:10:36;100174.25;;;15.65;100.00
16525;BME280;8375;33.594;-117.718;2023-05-23T06:13:06;100170.97;;;15.63;100.00
16525;BME280;8375;33.594;-117.718;2023-05-23T06:15:36;100177.09;;;15.54;100.00
16525;BME280;8375;33.594;-117.718;2023-05-23T06:18:05;100177.56;;;15.49;100.00
16525;BME280;8375;33.594;-117.718;2023-05-23T06:20:33;100179.50;;;15.47;100.00
16525;BME280;8375;33.594;-117.718;2023-05-23T06:23:02;100181.59;;;15.44;100.00
16525;BME280;8375;33.594;-117.718;2023-05-23T06:25:31;100182.44;;;15.44;100.00
16525;BME280;8375;33.594;-117.718;2023-05-23T06:27:59;100184.38;;;15.42;100.00
16525;BME280;8375;33.594;-117.718;2023-05-23T06:30:28;100180.78;;;15.43;100.00
16525;BME280;8375;33.594;-117.718;2023-05-23T06:32:58;100185.47;;;15.39;100.00
16525;BME280;8375;33.594;-117.718;2023-05-23T06:35:27;100182.88;;;15.21;100.00
16525;BME280;8375;33.594;-117.718;2023-05-23T06:37:56;100183.25;;;15.27;100.00
16525;BME280;8375;33.594;-117.718;2023-05-23T06:40:25;100190.81;;;15.30;100.00
16525;BME280;8375;33.594;-117.718;2023-05-23T06:42:54;100192.44;;;15.31;100.00
16525;BME280;8375;33.594;-117.718;2023-05-23T06:45:22;100196.53;;;15.33;100.00
16525;BME280;8375;33.594;-117.718;2023-05-23T06:47:51;100195.56;;;15.34;100.00
16525;BME280;8375;33.594;-117.718;2023-05-23T06:50:21;100192.28;;;15.32;100.00
16525;BME280;8375;33.594;-117.718;2023-05-23T06:52:50;100196.53;;;15.33;100.00
16525;BME280;8375;33.594;-117.718;2023-05-23T06:55:19;100192.94;;;15.34;100.00
16525;BME280;8375;33.594;-117.718;2023-05-23T06:57:47;100192.16;;;15.34;100.00
16525;BME280;8375;33.594;-117.718;2023-05-23T07:00:18;100196.53;;;15.33;100.00
16525;BME280;8375;33.594;-117.718;2023-05-23T07:02:47;100195.72;;;15.33;100.00
16525;BME280;8375;33.594;-117.718;2023-05-23T07:05:16;100197.81;;;15.29;100.00
16525;BME280;8375;33.594;-117.718;2023-05-23T07:07:46;100207.84;;;15.34;100.00
16525;BME280;8375;33.594;-117.718;2023-05-23T07:10:15;100210.97;;;15.37;100.00
16525;BME280;8375;33.594;-117.718;2023-05-23T07:12:45;100207.97;;;15.32;100.00
16525;BME280;8375;33.594;-117.718;2023-05-23T07:15:14;100210.06;;;15.29;100.00
16525;BME280;8375;33.594;-117.718;2023-05-23T07:17:42;100212.09;;;15.35;100.00
16525;BME280;8375;33.594;-117.718;2023-05-23T07:20:11;100212.53;;;15.30;100.00
16525;BME280;8375;33.594;-117.718;2023-05-23T07:22:40;100207.59;;;15.27;100.00
16525;BME280;8375;33.594;-117.718;2023-05-23T07:25:10;100212.81;;;15.27;100.00
16525;BME280;8375;33.594;-117.718;2023-05-23T07:27:39;100215.44;;;15.27;100.00
16525;BME280;8375;33.594;-117.718;2023-05-23T07:30:08;100211.47;;;15.23;100.00
16525;BME280;8375;33.594;-117.718;2023-05-23T07:32:37;100209.16;;;15.20;100.00
16525;BME280;8375;33.594;-117.718;2023-05-23T07:35:06;100213.41;;;15.21;100.00
16525;BME280;8375;33.594;-117.718;2023-05-23T07:37:35;100211.94;;;15.18;100.00
16525;BME280;8375;33.594;-117.718;2023-05-23T07:40:04;100211.09;;;15.18;100.00
16525;BME280;8375;33.594;-117.718;2023-05-23T07:42:36;100206.53;;;15.20;100.00
16525;BME280;8375;33.594;-117.718;2023-05-23T07:45:05;100211.47;;;15.23;100.00
16525;BME280;8375;33.594;-117.718;2023-05-23T07:47:34;100210.13;;;15.19;100.00
16525;BME280;8375;33.594;-117.718;2023-05-23T07:50:03;100214.31;;;15.11;100.00
16525;BME280;8375;33.594;-117.718;2023-05-23T07:52:32;100213.34;;;15.13;100.00
16525;BME280;8375;33.594;-117.718;2023-05-23T07:55:00;100215.16;;;15.12;100.00
16525;BME280;8375;33.594;-117.718;2023-05-23T07:57:29;100214.59;;;15.08;100.00
16525;BME280;8375;33.594;-117.718;2023-05-23T07:59:59;100205.28;;;15.06;100.00
16525;BME280;8375;33.594;-117.718;2023-05-23T08:02:28;100208.19;;;15.03;100.00
16525;BME280;8375;33.594;-117.718;2023-05-23T08:04:56;100210.25;;;14.99;100.00
16525;BME280;8375;33.594;-117.718;2023-05-23T08:07:25;100214.13;;;14.95;100.00
16525;BME280;8375;33.594;-117.718;2023-05-23T08:09:54;100212.47;;;14.94;100.00
16525;BME280;8375;33.594;-117.718;2023-05-23T08:12:22;100208.00;;;14.86;100.00
16525;BME280;8375;33.594;-117.718;2023-05-23T08:14:51;100213.22;;;14.86;100.00
16525;BME280;8375;33.594;-117.718;2023-05-23T08:17:21;100210.34;;;14.79;100.00
16525;BME280;8375;33.594;-117.718;2023-05-23T08:19:50;100210.66;;;14.76;100.00
16525;BME280;8375;33.594;-117.718;2023-05-23T08:22:19;100202.81;;;14.76;100.00
16525;BME280;8375;33.594;-117.718;2023-05-23T08:24:47;100210.81;;;14.75;100.00
16525;BME280;8375;33.594;-117.718;2023-05-23T08:27:16;100218.34;;;14.68;100.00
16525;BME280;8375;33.594;-117.718;2023-05-23T08:29:45;100212.16;;;14.69;100.00
16525;BME280;8375;33.594;-117.718;2023-05-23T08:32:13;100216.03;;;14.65;100.00
16525;BME280;8375;33.594;-117.718;2023-05-23T08:34:44;100211.25;;;14.60;100.00
16525;BME280;8375;33.594;-117.718;2023-05-23T08:37:12;100210.81;;;14.65;100.00
16525;BME280;8375;33.594;-117.718;2023-05-23T08:39:41;100212.06;;;14.61;100.00
16525;BME280;8375;33.594;-117.718;2023-05-23T08:42:09;100212.50;;;14.56;100.00
16525;BME280;8375;33.594;-117.718;2023-05-23T08:44:38;100206.25;;;14.67;100.00
16525;BME280;8375;33.594;-117.718;2023-05-23T08:47:07;100203.94;;;14.64;100.00
16525;BME280;8375;33.594;-117.718;2023-05-23T08:49:37;100198.88;;;14.62;100.00
16525;BME280;8375;33.594;-117.718;2023-05-23T08:52:11;100202.44;;;14.61;100.00
16525;BME280;8375;33.594;-117.718;2023-05-23T08:54:42;100202.19;;;14.55;100.00
16525;BME280;8375;33.594;-117.718;2023-05-23T08:57:11;100202.47;;;14.51;100.00
16525;BME280;8375;33.594;-117.718;2023-05-23T08:59:40;100204.81;;;14.55;100.00
16525;BME280;8375;33.594;-117.718;2023-05-23T09:02:10;100196.19;;;14.44;100.00
16525;BME280;8375;33.594;-117.718;2023-05-23T09:04:39;100195.09;;;14.47;100.00
16525;BME280;8375;33.594;-117.718;2023-05-23T09:07:11;100187.09;;;14.48;100.00
16525;BME280;8375;33.594;-117.718;2023-05-23T09:09:41;100181.28;;;14.55;100.00
16525;BME280;8375;33.594;-117.718;2023-05-23T09:12:09;100184.00;;;14.63;100.00
16525;BME280;8375;33.594;-117.718;2023-05-23T09:14:39;100182.06;;;14.65;100.00
16525;BME280;8375;33.594;-117.718;2023-05-23T09:17:07;100180.00;;;14.69;100.00
16525;BME280;8375;33.594;-117.718;2023-05-23T09:19:40;100184.97;;;14.72;100.00
16525;BME280;8375;33.594;-117.718;2023-05-23T09:22:10;100184.28;;;14.70;100.00
16525;BME280;8375;33.594;-117.718;2023-05-23T09:24:39;100187.13;;;14.76;100.00
16525;BME280;8375;33.594;-117.718;2023-05-23T09:27:08;100181.22;;;14.74;100.00
16525;BME280;8375;33.594;-117.718;2023-05-23T09:29:37;100180.94;;;14.77;100.00
16525;BME280;8375;33.594;-117.718;2023-05-23T09:32:13;100186.16;;;14.77;100.00
16525;BME280;8375;33.594;-117.718;2023-05-23T09:34:43;100184.69;;;14.75;100.00
16525;BME280;8375;33.594;-117.718;2023-05-23T09:37:28;100181.63;;;14.79;100.00
16525;BME280;8375;33.594;-117.718;2023-05-23T09:39:59;100186.16;;;14.77;100.00
16525;BME280;8375;33.594;-117.718;2023-05-23T12:27:28;100079.34;;;14.46;100.00
16525;BME280;8375;33.594;-117.718;2023-05-23T12:30:09;100077.03;;;14.43;100.00
16525;BME280;8375;33.594;-117.718;2023-05-23T12:32:39;100076.06;;;14.44;100.00
16525;BME280;8375;33.594;-117.718;2023-05-23T12:35:10;100082.91;;;14.45;100.00
16525;BME280;8375;33.594;-117.718;2023-05-23T12:37:39;100073.16;;;14.47;100.00
16525;BME280;8375;33.594;-117.718;2023-05-23T12:40:12;100071.75;;;14.53;100.00
16525;BME280;8375;33.594;-117.718;2023-05-23T12:43:00;100071.88;;;14.51;100.00
16525;BME280;8375;33.594;-117.718;2023-05-23T12:45:33;100079.44;;;14.55;100.00
16525;BME280;8375;33.594;-117.718;2023-05-23T12:48:02;100079.59;;;14.53;100.00
16525;BME280;8375;33.594;-117.718;2023-05-23T12:50:31;100085.09;;;14.50;100.00
16525;BME280;8375;33.594;-117.718;2023-05-23T12:52:59;100083.47;;;14.49;100.00
16525;BME280;8375;33.594;-117.718;2023-05-23T12:55:28;100088.53;;;14.50;100.00
16525;BME280;8375;33.594;-117.718;2023-05-23T12:57:57;100084.28;;;14.49;100.00
16525;BME280;8375;33.594;-117.718;2023-05-23T13:00:27;100085.63;;;14.53;100.00
16525;BME280;8375;33.594;-117.718;2023-05-23T13:02:55;100079.28;;;14.56;100.00
16525;BME280;8375;33.594;-117.718;2023-05-23T13:05:24;100083.69;;;14.56;100.00
16525;BME280;8375;33.594;-117.718;2023-05-23T13:07:53;100086.69;;;14.61;100.00
16525;BME280;8375;33.594;-117.718;2023-05-23T13:10:24;100085.19;;;14.58;100.00
16525;BME280;8375;33.594;-117.718;2023-05-23T13:12:53;100083.25;;;14.60;100.00
16525;BME280;8375;33.594;-117.718;2023-05-23T13:15:22;100091.09;;;14.60;100.00
16525;BME280;8375;33.594;-117.718;2023-05-23T13:17:52;100084.91;;;14.61;100.00
16525;BME280;8375;33.594;-117.718;2023-05-23T13:20:21;100082.88;;;14.55;100.00
16525;BME280;8375;33.594;-117.718;2023-05-23T13:22:49;100088.63;;;14.59;100.00
16525;BME280;8375;33.594;-117.718;2023-05-23T13:25:18;100088.63;;;14.59;100.00
16525;BME280;8375;33.594;-117.718;2023-05-23T13:27:47;100086.16;;;14.57;100.00
16525;BME280;8375;33.594;-117.718;2023-05-23T13:30:16;100084.22;;;14.59;100.00
16525;BME280;8375;33.594;-117.718;2023-05-23T13:32:44;100080.94;;;14.57;100.00
16525;BME280;8375;33.594;-117.718;2023-05-23T13:35:15;100078.03;;;14.60;100.00
16525;BME280;8375;33.594;-117.718;2023-05-23T13:37:44;100088.88;;;14.65;100.00
16525;BME280;8375;33.594;-117.718;2023-05-23T13:40:16;100087.47;;;14.71;100.00
16525;BME280;8375;33.594;-117.718;2023-05-23T13:42:48;100081.13;;;14.74;100.00
16525;BME280;8375;33.594;-117.718;2023-05-23T13:45:17;100086.88;;;14.77;100.00
16525;BME280;8375;33.594;-117.718;2023-05-23T13:47:47;100083.97;;;14.80;100.00
16525;BME280;8375;33.594;-117.718;2023-05-23T13:50:18;100076.88;;;14.91;100.00
16525;BME280;8375;33.594;-117.718;2023-05-23T13:52:47;100071.34;;;14.94;100.00
16525;BME280;8375;33.594;-117.718;2023-05-23T13:55:16;100076.28;;;14.97;100.00
16525;BME280;8375;33.594;-117.718;2023-05-23T13:57:45;100076.94;;;14.99;100.00
16525;BME280;8375;33.594;-117.718;2023-05-23T14:00:15;100073.06;;;15.03;100.00
16525;BME280;8375;33.594;-117.718;2023-05-23T14:02:44;100071.78;;;15.07;100.00
16525;BME280;8375;33.594;-117.718;2023-05-23T14:05:12;100069.34;;;15.06;100.00
16525;BME280;8375;33.594;-117.718;2023-05-23T14:07:43;100063.81;;;15.09;100.00
16525;BME280;8375;33.594;-117.718;2023-05-23T14:10:13;100071.19;;;15.14;100.00
16525;BME280;8375;33.594;-117.718;2023-05-23T14:12:42;100071.72;;;15.17;100.00
16525;BME280;8375;33.594;-117.718;2023-05-23T14:15:11;100076.94;;;15.17;100.00
16525;BME280;8375;33.594;-117.718;2023-05-23T14:17:40;100077.56;;;15.11;100.00
16525;BME280;8375;33.594;-117.718;2023-05-23T14:20:09;100075.81;;;15.20;100.00
16525;BME280;8375;33.594;-117.718;2023-05-23T14:22:38;100075.22;;;15.26;100.00
16525;BME280;8375;33.594;-117.718;2023-05-23T14:25:09;100060.72;;;15.32;100.00
16525;BME280;8375;33.594;-117.718;2023-05-23T14:27:38;100069.06;;;15.35;100.00
16525;BME280;8375;33.594;-117.718;2023-05-23T14:30:08;100070.25;;;15.41;100.00
16525;BME280;8375;33.594;-117.718;2023-05-23T14:32:37;100066.50;;;15.44;100.00
16525;BME280;8375;33.594;-117.718;2023-05-23T14:35:07;100068.69;;;15.48;100.00
16525;BME280;8375;33.594;-117.718;2023-05-23T14:37:36;100065.59;;;15.53;100.00
16525;BME280;8375;33.594;-117.718;2023-05-23T14:40:06;100068.56;;;15.58;100.00
16525;BME280;8375;33.594;-117.718;2023-05-23T14:42:37;100060.25;;;15.63;100.00
16525;BME280;8375;33.594;-117.718;2023-05-23T14:45:06;100069.94;;;15.70;100.00
16525;BME280;8375;33.594;-117.718;2023-05-23T14:47:35;100067.03;;;15.74;100.00
16525;BME280;8375;33.594;-117.718;2023-05-23T14:50:04;100066.72;;;15.77;100.00
16525;BME280;8375;33.594;-117.718;2023-05-23T14:52:33;100066.25;;;15.81;100.00
16525;BME280;8375;33.594;-117.718;2023-05-23T14:55:02;100062.88;;;15.89;100.00
16525;BME280;8375;33.594;-117.718;2023-05-23T14:57:30;100070.94;;;15.96;100.00
16525;BME280;8375;33.594;-117.718;2023-05-23T15:00:01;100077.06;;;16.05;100.00
16525;BME280;8375;33.594;-117.718;2023-05-23T15:02:31;100075.75;;;16.09;100.00
16525;BME280;8375;33.594;-117.718;2023-05-23T15:04:59;100081.34;;;16.14;100.00
16525;BME280;8375;33.594;-117.718;2023-05-23T15:07:28;100081.84;;;16.18;100.00
16525;BME280;8375;33.594;-117.718;2023-05-23T15:09:57;100080.06;;;16.18;100.00
16525;BME280;8375;33.594;-117.718;2023-05-23T15:12:27;100079.56;;;16.23;100.00
16525;BME280;8375;33.594;-117.718;2023-05-23T15:14:56;100079.09;;;16.27;100.00
16525;BME280;8375;33.594;-117.718;2023-05-23T15:17:31;100079.09;;;16.27;100.00
16525;BME280;8375;33.594;-117.718;2023-05-23T15:20:00;100091.72;;;16.32;100.00